LPHR/HOR METAR and TAF weather

Enter ICAO airport designator
Station Type Date Time Source
LPHR METAR 2020/06/03 20:00 UTC NOAA

LPHR 032000Z 05019KT 9999 FEW012 SCT030 18/13 Q1016


Station Type Date Time Source
LPHR Decoded METAR 2020/06/03 20:00 UTC NOAA

Horta / Castelo Branco Acores , Portugal (LPHR) 38-31N 028-43W 41M
Jun 03, 2020 - 04:00 PM EDT / 2020.06.03 2000 UTC
Wind: from the NE (050 degrees) at 22 MPH (19 KT):0
Visibility: greater than 7 mile(s):0
Sky conditions: partly cloudy
Temperature: 64 F (18 C)
Dew Point: 55 F (13 C)
Relative Humidity: 72%
Pressure (altimeter): 30.00 in. Hg (1016 hPa)
ob: LPHR 032000Z 05019KT 9999 FEW012 SCT030 18/13 Q1016
cycle: 20

Station Type Date Time Source
LPHR TAF 2018/09/06 09:00 UTC NOAA

TAF LPHR 060800Z 0609/0618 12010KT 9999 SCT018 SCT040 PROB30
TEMPO 0609/0618 5000 SHRA BKN015 FEW018CB
BECMG 0610/0612 18010KT

Example: see airport list